sensor_id;sensor_type;location;lat;lon;timestamp;P1;durP1;ratioP1;P2;durP2;ratioP2
36797;SDS011;22748;8.426;99.512;2022-12-11T00:01:52;24.88;;;15.30;;
36797;SDS011;22748;8.426;99.512;2022-12-11T00:04:32;23.05;;;14.00;;
36797;SDS011;22748;8.426;99.512;2022-12-11T00:07:15;22.70;;;14.60;;
36797;SDS011;22748;8.426;99.512;2022-12-11T00:09:45;25.08;;;14.73;;
36797;SDS011;22748;8.426;99.512;2022-12-11T00:12:16;23.27;;;13.77;;
36797;SDS011;22748;8.426;99.512;2022-12-11T00:14:49;38.30;;;16.65;;
36797;SDS011;22748;8.426;99.512;2022-12-11T00:17:23;47.50;;;17.23;;
36797;SDS011;22748;8.426;99.512;2022-12-11T00:19:52;53.63;;;16.88;;
36797;SDS011;22748;8.426;99.512;2022-12-11T00:22:28;33.58;;;16.27;;
36797;SDS011;22748;8.426;99.512;2022-12-11T00:24:58;56.35;;;38.40;;
36797;SDS011;22748;8.426;99.512;2022-12-11T00:27:32;46.97;;;31.88;;
36797;SDS011;22748;8.426;99.512;2022-12-11T00:30:02;48.17;;;27.70;;
36797;SDS011;22748;8.426;99.512;2022-12-11T00:32:35;49.45;;;34.22;;
36797;SDS011;22748;8.426;99.512;2022-12-11T00:35:07;28.42;;;17.08;;
36797;SDS011;22748;8.426;99.512;2022-12-11T00:37:39;26.60;;;15.60;;
36797;SDS011;22748;8.426;99.512;2022-12-11T00:42:40;26.92;;;14.30;;
36797;SDS011;22748;8.426;99.512;2022-12-11T00:45:11;30.05;;;22.33;;
36797;SDS011;22748;8.426;99.512;2022-12-11T00:47:44;28.50;;;17.58;;
36797;SDS011;22748;8.426;99.512;2022-12-11T00:50:13;24.27;;;14.73;;
36797;SDS011;22748;8.426;99.512;2022-12-11T00:52:43;16.85;;;13.05;;
36797;SDS011;22748;8.426;99.512;2022-12-11T00:55:14;23.98;;;13.30;;
36797;SDS011;22748;8.426;99.512;2022-12-11T00:57:45;18.48;;;12.55;;
36797;SDS011;22748;8.426;99.512;2022-12-11T01:00:16;22.92;;;14.00;;
36797;SDS011;22748;8.426;99.512;2022-12-11T01:02:49;20.13;;;13.20;;
36797;SDS011;22748;8.426;99.512;2022-12-11T01:05:20;15.80;;;11.90;;
36797;SDS011;22748;8.426;99.512;2022-12-11T01:07:49;21.08;;;11.15;;
36797;SDS011;22748;8.426;99.512;2022-12-11T01:10:20;27.95;;;21.52;;
36797;SDS011;22748;8.426;99.512;2022-12-11T01:12:55;21.38;;;10.43;;
36797;SDS011;22748;8.426;99.512;2022-12-11T01:15:28;15.77;;;8.52;;
36797;SDS011;22748;8.426;99.512;2022-12-11T01:18:03;16.00;;;9.10;;
36797;SDS011;22748;8.426;99.512;2022-12-11T01:20:32;12.25;;;8.38;;
36797;SDS011;22748;8.426;99.512;2022-12-11T01:23:03;13.40;;;8.65;;
36797;SDS011;22748;8.426;99.512;2022-12-11T01:28:06;18.63;;;8.75;;
36797;SDS011;22748;8.426;99.512;2022-12-11T01:30:39;12.95;;;9.10;;
36797;SDS011;22748;8.426;99.512;2022-12-11T01:33:13;13.27;;;8.43;;
36797;SDS011;22748;8.426;99.512;2022-12-11T01:35:43;15.43;;;6.88;;
36797;SDS011;22748;8.426;99.512;2022-12-11T01:38:14;13.38;;;7.10;;
36797;SDS011;22748;8.426;99.512;2022-12-11T01:40:46;10.63;;;7.43;;
36797;SDS011;22748;8.426;99.512;2022-12-11T01:43:16;10.48;;;7.30;;
36797;SDS011;22748;8.426;99.512;2022-12-11T01:45:47;10.95;;;7.28;;
36797;SDS011;22748;8.426;99.512;2022-12-11T01:48:22;13.30;;;6.70;;
36797;SDS011;22748;8.426;99.512;2022-12-11T01:50:56;13.45;;;6.85;;
36797;SDS011;22748;8.426;99.512;2022-12-11T01:53:28;10.98;;;5.95;;
36797;SDS011;22748;8.426;99.512;2022-12-11T01:56:03;9.85;;;5.40;;
36797;SDS011;22748;8.426;99.512;2022-12-11T01:58:37;6.85;;;5.30;;
36797;SDS011;22748;8.426;99.512;2022-12-11T02:01:16;7.82;;;5.53;;
36797;SDS011;22748;8.426;99.512;2022-12-11T02:03:53;7.45;;;5.45;;
36797;SDS011;22748;8.426;99.512;2022-12-11T02:06:33;7.43;;;5.50;;
36797;SDS011;22748;8.426;99.512;2022-12-11T02:09:08;26.60;;;14.82;;
36797;SDS011;22748;8.426;99.512;2022-12-11T02:11:46;22.70;;;13.63;;
36797;SDS011;22748;8.426;99.512;2022-12-11T02:14:27;19.38;;;9.02;;
36797;SDS011;22748;8.426;99.512;2022-12-11T02:17:05;16.35;;;7.63;;
36797;SDS011;22748;8.426;99.512;2022-12-11T02:19:51;10.48;;;5.25;;
36797;SDS011;22748;8.426;99.512;2022-12-11T02:22:27;7.00;;;4.20;;
36797;SDS011;22748;8.426;99.512;2022-12-11T02:25:16;11.00;;;7.28;;
36797;SDS011;22748;8.426;99.512;2022-12-11T02:30:38;10.18;;;4.82;;
36797;SDS011;22748;8.426;99.512;2022-12-11T02:33:10;7.75;;;4.32;;
36797;SDS011;22748;8.426;99.512;2022-12-11T02:35:44;8.57;;;4.43;;
36797;SDS011;22748;8.426;99.512;2022-12-11T02:38:22;8.60;;;4.90;;
36797;SDS011;22748;8.426;99.512;2022-12-11T02:43:30;7.95;;;4.25;;
36797;SDS011;22748;8.426;99.512;2022-12-11T02:46:04;10.95;;;5.75;;
36797;SDS011;22748;8.426;99.512;2022-12-11T02:48:36;9.80;;;4.32;;
36797;SDS011;22748;8.426;99.512;2022-12-11T02:51:10;7.22;;;3.83;;
36797;SDS011;22748;8.426;99.512;2022-12-11T02:53:45;8.63;;;4.57;;
36797;SDS011;22748;8.426;99.512;2022-12-11T02:56:19;6.72;;;3.28;;
36797;SDS011;22748;8.426;99.512;2022-12-11T02:58:59;5.82;;;2.70;;
36797;SDS011;22748;8.426;99.512;2022-12-11T03:01:36;7.38;;;2.60;;
36797;SDS011;22748;8.426;99.512;2022-12-11T03:04:07;5.40;;;3.10;;
36797;SDS011;22748;8.426;99.512;2022-12-11T03:06:40;5.78;;;3.10;;
36797;SDS011;22748;8.426;99.512;2022-12-11T03:09:17;3.58;;;2.60;;
36797;SDS011;22748;8.426;99.512;2022-12-11T03:11:46;9.70;;;3.13;;
36797;SDS011;22748;8.426;99.512;2022-12-11T03:14:19;4.63;;;3.17;;
36797;SDS011;22748;8.426;99.512;2022-12-11T03:16:51;9.52;;;3.78;;
36797;SDS011;22748;8.426;99.512;2022-12-11T03:19:31;3.85;;;3.30;;
36797;SDS011;22748;8.426;99.512;2022-12-11T03:22:08;6.53;;;3.67;;
36797;SDS011;22748;8.426;99.512;2022-12-11T03:24:43;8.27;;;3.30;;
36797;SDS011;22748;8.426;99.512;2022-12-11T03:27:21;7.75;;;3.15;;
36797;SDS011;22748;8.426;99.512;2022-12-11T03:30:02;12.02;;;4.30;;
36797;SDS011;22748;8.426;99.512;2022-12-11T03:32:37;8.50;;;4.03;;
36797;SDS011;22748;8.426;99.512;2022-12-11T03:35:12;4.10;;;3.47;;
36797;SDS011;22748;8.426;99.512;2022-12-11T03:37:48;5.38;;;3.67;;
36797;SDS011;22748;8.426;99.512;2022-12-11T03:40:20;7.97;;;3.33;;
36797;SDS011;22748;8.426;99.512;2022-12-11T03:42:54;5.07;;;3.90;;
36797;SDS011;22748;8.426;99.512;2022-12-11T03:45:28;8.15;;;4.50;;
36797;SDS011;22748;8.426;99.512;2022-12-11T03:48:00;7.53;;;4.22;;
36797;SDS011;22748;8.426;99.512;2022-12-11T03:50:32;8.40;;;5.13;;
36797;SDS011;22748;8.426;99.512;2022-12-11T03:53:05;8.07;;;4.95;;
36797;SDS011;22748;8.426;99.512;2022-12-11T03:55:36;22.77;;;5.85;;
36797;SDS011;22748;8.426;99.512;2022-12-11T03:58:09;6.18;;;4.30;;
36797;SDS011;22748;8.426;99.512;2022-12-11T04:00:42;10.93;;;4.55;;
36797;SDS011;22748;8.426;99.512;2022-12-11T04:03:12;8.00;;;4.45;;
36797;SDS011;22748;8.426;99.512;2022-12-11T04:08:15;11.07;;;5.27;;
36797;SDS011;22748;8.426;99.512;2022-12-11T04:10:48;56.05;;;27.40;;
36797;SDS011;22748;8.426;99.512;2022-12-11T04:13:40;19.90;;;8.57;;
36797;SDS011;22748;8.426;99.512;2022-12-11T04:16:11;8.38;;;4.35;;
36797;SDS011;22748;8.426;99.512;2022-12-11T04:18:41;12.20;;;5.10;;
36797;SDS011;22748;8.426;99.512;2022-12-11T04:21:25;7.53;;;4.50;;
36797;SDS011;22748;8.426;99.512;2022-12-11T04:24:10;11.52;;;4.80;;
36797;SDS011;22748;8.426;99.512;2022-12-11T04:26:44;8.25;;;4.72;;
36797;SDS011;22748;8.426;99.512;2022-12-11T04:29:15;12.15;;;3.97;;
36797;SDS011;22748;8.426;99.512;2022-12-11T04:35:12;6.05;;;4.15;;
36797;SDS011;22748;8.426;99.512;2022-12-11T04:37:48;8.95;;;4.22;;
36797;SDS011;22748;8.426;99.512;2022-12-11T04:40:17;14.82;;;7.30;;
36797;SDS011;22748;8.426;99.512;2022-12-11T04:42:49;28.77;;;6.60;;
36797;SDS011;22748;8.426;99.512;2022-12-11T04:47:52;6.72;;;3.45;;
36797;SDS011;22748;8.426;99.512;2022-12-11T04:50:24;6.85;;;3.63;;
36797;SDS011;22748;8.426;99.512;2022-12-11T04:52:54;5.85;;;3.72;;
36797;SDS011;22748;8.426;99.512;2022-12-11T04:55:24;11.65;;;4.45;;
36797;SDS011;22748;8.426;99.512;2022-12-11T04:57:56;6.25;;;3.97;;
36797;SDS011;22748;8.426;99.512;2022-12-11T05:00:28;7.30;;;3.30;;
36797;SDS011;22748;8.426;99.512;2022-12-11T05:03:01;4.53;;;3.50;;
36797;SDS011;22748;8.426;99.512;2022-12-11T05:05:32;4.53;;;3.30;;
36797;SDS011;22748;8.426;99.512;2022-12-11T05:08:03;8.85;;;3.30;;
36797;SDS011;22748;8.426;99.512;2022-12-11T05:10:33;5.65;;;3.30;;
36797;SDS011;22748;8.426;99.512;2022-12-11T05:13:04;5.13;;;3.40;;
36797;SDS011;22748;8.426;99.512;2022-12-11T05:15:38;5.20;;;3.33;;
36797;SDS011;22748;8.426;99.512;2022-12-11T05:18:10;5.40;;;3.05;;
36797;SDS011;22748;8.426;99.512;2022-12-11T05:20:41;5.47;;;2.83;;
36797;SDS011;22748;8.426;99.512;2022-12-11T05:23:12;10.05;;;3.17;;
36797;SDS011;22748;8.426;99.512;2022-12-11T05:25:42;10.73;;;3.30;;
36797;SDS011;22748;8.426;99.512;2022-12-11T05:28:18;5.03;;;3.08;;
36797;SDS011;22748;8.426;99.512;2022-12-11T05:30:55;9.43;;;3.72;;
36797;SDS011;22748;8.426;99.512;2022-12-11T05:33:28;6.03;;;2.97;;
36797;SDS011;22748;8.426;99.512;2022-12-11T05:35:58;7.65;;;3.17;;
36797;SDS011;22748;8.426;99.512;2022-12-11T05:41:22;8.88;;;4.70;;
36797;SDS011;22748;8.426;99.512;2022-12-11T05:43:54;5.68;;;3.40;;
36797;SDS011;22748;8.426;99.512;2022-12-11T05:46:24;3.60;;;2.42;;
36797;SDS011;22748;8.426;99.512;2022-12-11T05:48:59;4.55;;;2.83;;
36797;SDS011;22748;8.426;99.512;2022-12-11T05:51:31;2.75;;;2.47;;
36797;SDS011;22748;8.426;99.512;2022-12-11T05:54:05;6.03;;;2.58;;
36797;SDS011;22748;8.426;99.512;2022-12-11T05:56:38;9.77;;;3.17;;
36797;SDS011;22748;8.426;99.512;2022-12-11T05:59:10;6.68;;;2.60;;
36797;SDS011;22748;8.426;99.512;2022-12-11T06:01:42;7.70;;;3.03;;
36797;SDS011;22748;8.426;99.512;2022-12-11T06:04:15;10.60;;;2.85;;
36797;SDS011;22748;8.426;99.512;2022-12-11T06:06:44;4.63;;;2.60;;
36797;SDS011;22748;8.426;99.512;2022-12-11T06:09:17;4.32;;;2.30;;
36797;SDS011;22748;8.426;99.512;2022-12-11T06:11:48;6.80;;;2.60;;
36797;SDS011;22748;8.426;99.512;2022-12-11T06:14:20;3.83;;;2.63;;
36797;SDS011;22748;8.426;99.512;2022-12-11T06:16:49;3.88;;;2.50;;
36797;SDS011;22748;8.426;99.512;2022-12-11T06:19:23;6.85;;;2.78;;
36797;SDS011;22748;8.426;99.512;2022-12-11T06:21:55;3.85;;;2.30;;
36797;SDS011;22748;8.426;99.512;2022-12-11T06:24:27;3.33;;;2.95;;
36797;SDS011;22748;8.426;99.512;2022-12-11T06:26:59;3.63;;;2.45;;
36797;SDS011;22748;8.426;99.512;2022-12-11T06:29:29;4.50;;;2.78;;
36797;SDS011;22748;8.426;99.512;2022-12-11T06:31:59;4.43;;;2.78;;
36797;SDS011;22748;8.426;99.512;2022-12-11T06:34:30;4.53;;;3.03;;
36797;SDS011;22748;8.426;99.512;2022-12-11T06:37:00;4.93;;;3.05;;
36797;SDS011;22748;8.426;99.512;2022-12-11T06:39:29;5.15;;;3.05;;
36797;SDS011;22748;8.426;99.512;2022-12-11T06:41:59;6.25;;;3.15;;
36797;SDS011;22748;8.426;99.512;2022-12-11T06:44:29;3.30;;;3.00;;
36797;SDS011;22748;8.426;99.512;2022-12-11T06:47:04;6.15;;;3.22;;
36797;SDS011;22748;8.426;99.512;2022-12-11T06:49:35;6.97;;;3.77;;
36797;SDS011;22748;8.426;99.512;2022-12-11T06:52:04;8.20;;;3.80;;
36797;SDS011;22748;8.426;99.512;2022-12-11T06:54:34;3.95;;;3.53;;
36797;SDS011;22748;8.426;99.512;2022-12-11T06:57:04;6.13;;;3.50;;
36797;SDS011;22748;8.426;99.512;2022-12-11T06:59:33;6.22;;;3.30;;
36797;SDS011;22748;8.426;99.512;2022-12-11T07:02:03;5.10;;;3.20;;
36797;SDS011;22748;8.426;99.512;2022-12-11T07:04:36;4.53;;;3.00;;
36797;SDS011;22748;8.426;99.512;2022-12-11T07:07:06;5.95;;;3.42;;
36797;SDS011;22748;8.426;99.512;2022-12-11T07:09:38;8.80;;;3.80;;
36797;SDS011;22748;8.426;99.512;2022-12-11T07:12:08;5.22;;;3.50;;
36797;SDS011;22748;8.426;99.512;2022-12-11T07:14:38;6.20;;;3.00;;
36797;SDS011;22748;8.426;99.512;2022-12-11T07:17:11;7.32;;;3.47;;
36797;SDS011;22748;8.426;99.512;2022-12-11T07:19:42;7.40;;;3.42;;
36797;SDS011;22748;8.426;99.512;2022-12-11T07:22:12;6.65;;;3.78;;
36797;SDS011;22748;8.426;99.512;2022-12-11T07:24:42;9.23;;;3.60;;
36797;SDS011;22748;8.426;99.512;2022-12-11T07:27:12;7.00;;;3.10;;
36797;SDS011;22748;8.426;99.512;2022-12-11T07:29:42;4.90;;;3.10;;
36797;SDS011;22748;8.426;99.512;2022-12-11T07:32:12;5.53;;;3.22;;
36797;SDS011;22748;8.426;99.512;2022-12-11T07:34:45;6.35;;;4.18;;
36797;SDS011;22748;8.426;99.512;2022-12-11T07:37:16;5.95;;;3.50;;
36797;SDS011;22748;8.426;99.512;2022-12-11T07:39:46;5.30;;;3.47;;
36797;SDS011;22748;8.426;99.512;2022-12-11T07:42:16;5.57;;;3.22;;
36797;SDS011;22748;8.426;99.512;2022-12-11T07:44:46;7.07;;;3.27;;
36797;SDS011;22748;8.426;99.512;2022-12-11T07:47:17;8.88;;;3.75;;
36797;SDS011;22748;8.426;99.512;2022-12-11T07:49:50;6.13;;;4.50;;
36797;SDS011;22748;8.426;99.512;2022-12-11T07:52:20;6.63;;;4.00;;
36797;SDS011;22748;8.426;99.512;2022-12-11T07:54:50;7.60;;;3.90;;
36797;SDS011;22748;8.426;99.512;2022-12-11T07:57:20;4.50;;;3.17;;
36797;SDS011;22748;8.426;99.512;2022-12-11T07:59:51;10.60;;;5.55;;
36797;SDS011;22748;8.426;99.512;2022-12-11T08:02:20;6.35;;;4.22;;
36797;SDS011;22748;8.426;99.512;2022-12-11T08:04:52;9.10;;;5.57;;
36797;SDS011;22748;8.426;99.512;2022-12-11T08:07:22;9.63;;;4.70;;
36797;SDS011;22748;8.426;99.512;2022-12-11T08:09:51;6.45;;;4.15;;
36797;SDS011;22748;8.426;99.512;2022-12-11T08:12:20;6.05;;;4.10;;
36797;SDS011;22748;8.426;99.512;2022-12-11T08:14:50;5.88;;;3.63;;
36797;SDS011;22748;8.426;99.512;2022-12-11T08:17:19;7.63;;;4.50;;
36797;SDS011;22748;8.426;99.512;2022-12-11T08:19:49;5.88;;;4.43;;
36797;SDS011;22748;8.426;99.512;2022-12-11T08:22:24;7.95;;;4.50;;
36797;SDS011;22748;8.426;99.512;2022-12-11T08:25:00;9.80;;;5.00;;
36797;SDS011;22748;8.426;99.512;2022-12-11T08:27:30;5.40;;;4.20;;
36797;SDS011;22748;8.426;99.512;2022-12-11T08:30:01;10.50;;;4.90;;
36797;SDS011;22748;8.426;99.512;2022-12-11T08:32:33;6.72;;;4.65;;
36797;SDS011;22748;8.426;99.512;2022-12-11T08:35:05;7.43;;;4.35;;
36797;SDS011;22748;8.426;99.512;2022-12-11T08:37:35;8.75;;;3.90;;
36797;SDS011;22748;8.426;99.512;2022-12-11T08:40:05;5.55;;;3.08;;
36797;SDS011;22748;8.426;99.512;2022-12-11T08:42:38;5.40;;;3.67;;
36797;SDS011;22748;8.426;99.512;2022-12-11T08:47:38;5.32;;;2.97;;
36797;SDS011;22748;8.426;99.512;2022-12-11T08:50:10;4.35;;;2.92;;
36797;SDS011;22748;8.426;99.512;2022-12-11T08:52:41;3.83;;;2.88;;
36797;SDS011;22748;8.426;99.512;2022-12-11T08:55:14;7.32;;;3.45;;
36797;SDS011;22748;8.426;99.512;2022-12-11T08:57:47;4.38;;;3.50;;
36797;SDS011;22748;8.426;99.512;2022-12-11T09:00:18;8.10;;;3.30;;
36797;SDS011;22748;8.426;99.512;2022-12-11T09:02:52;9.15;;;5.55;;
36797;SDS011;22748;8.426;99.512;2022-12-11T09:07:57;8.35;;;4.47;;
36797;SDS011;22748;8.426;99.512;2022-12-11T09:10:26;8.10;;;5.00;;
36797;SDS011;22748;8.426;99.512;2022-12-11T09:12:59;6.85;;;3.78;;
36797;SDS011;22748;8.426;99.512;2022-12-11T09:15:30;5.78;;;4.65;;
36797;SDS011;22748;8.426;99.512;2022-12-11T09:17:59;6.75;;;4.50;;
36797;SDS011;22748;8.426;99.512;2022-12-11T09:20:32;7.15;;;4.65;;
36797;SDS011;22748;8.426;99.512;2022-12-11T09:23:08;5.65;;;4.28;;
36797;SDS011;22748;8.426;99.512;2022-12-11T09:25:38;7.83;;;4.50;;
36797;SDS011;22748;8.426;99.512;2022-12-11T09:28:08;6.95;;;4.57;;
36797;SDS011;22748;8.426;99.512;2022-12-11T09:30:39;6.15;;;4.68;;
36797;SDS011;22748;8.426;99.512;2022-12-11T09:33:13;7.20;;;5.13;;
36797;SDS011;22748;8.426;99.512;2022-12-11T09:35:59;7.35;;;5.40;;
36797;SDS011;22748;8.426;99.512;2022-12-11T09:38:34;11.50;;;6.93;;
36797;SDS011;22748;8.426;99.512;2022-12-11T09:41:19;11.27;;;6.18;;
36797;SDS011;22748;8.426;99.512;2022-12-11T09:44:13;12.35;;;6.75;;
36797;SDS011;22748;8.426;99.512;2022-12-11T09:46:50;12.80;;;6.72;;
36797;SDS011;22748;8.426;99.512;2022-12-11T09:49:30;11.05;;;5.40;;
36797;SDS011;22748;8.426;99.512;2022-12-11T09:52:09;5.75;;;4.47;;
36797;SDS011;22748;8.426;99.512;2022-12-11T09:54:44;6.53;;;4.18;;
36797;SDS011;22748;8.426;99.512;2022-12-11T09:57:22;7.85;;;4.65;;
36797;SDS011;22748;8.426;99.512;2022-12-11T10:00:12;5.28;;;4.72;;
36797;SDS011;22748;8.426;99.512;2022-12-11T10:02:53;5.32;;;4.65;;
36797;SDS011;22748;8.426;99.512;2022-12-11T10:05:36;6.28;;;4.70;;
36797;SDS011;22748;8.426;99.512;2022-12-11T10:08:16;6.30;;;4.82;;
36797;SDS011;22748;8.426;99.512;2022-12-11T10:10:55;9.43;;;4.90;;
36797;SDS011;22748;8.426;99.512;2022-12-11T10:13:35;6.45;;;4.07;;
36797;SDS011;22748;8.426;99.512;2022-12-11T10:16:17;6.88;;;4.72;;
36797;SDS011;22748;8.426;99.512;2022-12-11T10:18:54;6.32;;;4.30;;
36797;SDS011;22748;8.426;99.512;2022-12-11T10:21:25;5.38;;;4.32;;
36797;SDS011;22748;8.426;99.512;2022-12-11T10:24:02;5.22;;;4.68;;
36797;SDS011;22748;8.426;99.512;2022-12-11T10:26:39;5.82;;;4.35;;
36797;SDS011;22748;8.426;99.512;2022-12-11T10:29:10;7.65;;;4.90;;
36797;SDS011;22748;8.426;99.512;2022-12-11T10:31:44;8.23;;;5.63;;
36797;SDS011;22748;8.426;99.512;2022-12-11T10:34:24;10.70;;;5.10;;
36797;SDS011;22748;8.426;99.512;2022-12-11T10:39:34;13.75;;;6.07;;
36797;SDS011;22748;8.426;99.512;2022-12-11T10:42:09;13.75;;;6.57;;
36797;SDS011;22748;8.426;99.512;2022-12-11T10:47:30;11.32;;;5.40;;
36797;SDS011;22748;8.426;99.512;2022-12-11T10:50:00;9.43;;;5.47;;
36797;SDS011;22748;8.426;99.512;2022-12-11T10:52:32;12.70;;;5.95;;
36797;SDS011;22748;8.426;99.512;2022-12-11T10:55:16;9.23;;;6.18;;
36797;SDS011;22748;8.426;99.512;2022-12-11T10:57:56;9.48;;;6.47;;
36797;SDS011;22748;8.426;99.512;2022-12-11T11:00:34;14.93;;;7.40;;
36797;SDS011;22748;8.426;99.512;2022-12-11T11:03:18;11.02;;;6.13;;
36797;SDS011;22748;8.426;99.512;2022-12-11T11:06:01;9.02;;;6.45;;
36797;SDS011;22748;8.426;99.512;2022-12-11T11:08:44;8.88;;;5.93;;
36797;SDS011;22748;8.426;99.512;2022-12-11T11:11:21;9.15;;;6.00;;
36797;SDS011;22748;8.426;99.512;2022-12-11T11:14:04;13.27;;;7.30;;
36797;SDS011;22748;8.426;99.512;2022-12-11T11:16:38;9.32;;;6.15;;
36797;SDS011;22748;8.426;99.512;2022-12-11T11:19:14;8.60;;;6.22;;
36797;SDS011;22748;8.426;99.512;2022-12-11T11:21:49;9.70;;;6.57;;
36797;SDS011;22748;8.426;99.512;2022-12-11T11:24:38;15.13;;;8.18;;
36797;SDS011;22748;8.426;99.512;2022-12-11T11:27:18;16.50;;;11.13;;
36797;SDS011;22748;8.426;99.512;2022-12-11T11:29:56;19.63;;;15.48;;
36797;SDS011;22748;8.426;99.512;2022-12-11T11:32:30;27.42;;;18.55;;
36797;SDS011;22748;8.426;99.512;2022-12-11T11:35:14;16.45;;;14.35;;
36797;SDS011;22748;8.426;99.512;2022-12-11T11:40:27;30.63;;;17.27;;
36797;SDS011;22748;8.426;99.512;2022-12-11T11:43:02;30.73;;;19.95;;
36797;SDS011;22748;8.426;99.512;2022-12-11T11:45:43;22.02;;;15.52;;
36797;SDS011;22748;8.426;99.512;2022-12-11T11:48:26;23.30;;;14.65;;
36797;SDS011;22748;8.426;99.512;2022-12-11T11:51:02;24.77;;;17.73;;
36797;SDS011;22748;8.426;99.512;2022-12-11T11:53:43;30.15;;;17.38;;
36797;SDS011;22748;8.426;99.512;2022-12-11T11:56:21;26.73;;;15.55;;
36797;SDS011;22748;8.426;99.512;2022-12-11T11:58:58;25.73;;;14.88;;
36797;SDS011;22748;8.426;99.512;2022-12-11T12:01:35;29.15;;;16.58;;
36797;SDS011;22748;8.426;99.512;2022-12-11T12:04:06;27.77;;;17.27;;
36797;SDS011;22748;8.426;99.512;2022-12-11T12:09:29;24.38;;;16.45;;
36797;SDS011;22748;8.426;99.512;2022-12-11T12:12:13;33.60;;;19.25;;
36797;SDS011;22748;8.426;99.512;2022-12-11T12:14:57;31.20;;;19.95;;
36797;SDS011;22748;8.426;99.512;2022-12-11T12:17:38;26.17;;;20.45;;
36797;SDS011;22748;8.426;99.512;2022-12-11T12:20:24;39.95;;;27.40;;
36797;SDS011;22748;8.426;99.512;2022-12-11T12:26:02;25.25;;;20.25;;
36797;SDS011;22748;8.426;99.512;2022-12-11T12:28:39;28.48;;;18.65;;
36797;SDS011;22748;8.426;99.512;2022-12-11T12:31:23;29.50;;;17.50;;
36797;SDS011;22748;8.426;99.512;2022-12-11T12:34:09;24.38;;;16.15;;
36797;SDS011;22748;8.426;99.512;2022-12-11T12:36:48;22.70;;;15.02;;
36797;SDS011;22748;8.426;99.512;2022-12-11T12:39:31;22.65;;;14.75;;
36797;SDS011;22748;8.426;99.512;2022-12-11T12:42:15;28.67;;;15.43;;
36797;SDS011;22748;8.426;99.512;2022-12-11T12:44:57;22.77;;;13.93;;
36797;SDS011;22748;8.426;99.512;2022-12-11T12:47:34;22.83;;;14.00;;
36797;SDS011;22748;8.426;99.512;2022-12-11T12:50:11;21.95;;;13.77;;
36797;SDS011;22748;8.426;99.512;2022-12-11T12:52:47;19.60;;;12.93;;
36797;SDS011;22748;8.426;99.512;2022-12-11T12:55:21;20.67;;;12.95;;
36797;SDS011;22748;8.426;99.512;2022-12-11T12:57:57;20.40;;;13.02;;
36797;SDS011;22748;8.426;99.512;2022-12-11T13:00:32;20.92;;;13.73;;
36797;SDS011;22748;8.426;99.512;2022-12-11T13:03:15;22.48;;;12.88;;
36797;SDS011;22748;8.426;99.512;2022-12-11T13:05:56;21.80;;;13.15;;
36797;SDS011;22748;8.426;99.512;2022-12-11T13:08:29;18.85;;;13.30;;
36797;SDS011;22748;8.426;99.512;2022-12-11T13:11:09;17.25;;;13.10;;
36797;SDS011;22748;8.426;99.512;2022-12-11T13:13:41;23.77;;;14.15;;
36797;SDS011;22748;8.426;99.512;2022-12-11T13:16:26;23.88;;;13.82;;
36797;SDS011;22748;8.426;99.512;2022-12-11T13:19:04;18.88;;;13.88;;
36797;SDS011;22748;8.426;99.512;2022-12-11T13:21:53;22.38;;;12.93;;
36797;SDS011;22748;8.426;99.512;2022-12-11T13:24:25;30.40;;;18.50;;
36797;SDS011;22748;8.426;99.512;2022-12-11T13:27:07;27.02;;;17.30;;
36797;SDS011;22748;8.426;99.512;2022-12-11T13:29:38;23.23;;;16.20;;
36797;SDS011;22748;8.426;99.512;2022-12-11T13:32:20;22.40;;;15.25;;
36797;SDS011;22748;8.426;99.512;2022-12-11T13:35:03;22.85;;;14.68;;
36797;SDS011;22748;8.426;99.512;2022-12-11T13:37:37;25.30;;;15.05;;
36797;SDS011;22748;8.426;99.512;2022-12-11T13:40:14;26.08;;;14.93;;
36797;SDS011;22748;8.426;99.512;2022-12-11T13:42:50;22.98;;;12.77;;
36797;SDS011;22748;8.426;99.512;2022-12-11T13:45:25;22.17;;;13.00;;
36797;SDS011;22748;8.426;99.512;2022-12-11T13:47:56;18.63;;;12.63;;
36797;SDS011;22748;8.426;99.512;2022-12-11T13:50:30;18.60;;;12.60;;
36797;SDS011;22748;8.426;99.512;2022-12-11T13:53:04;18.27;;;12.55;;
36797;SDS011;22748;8.426;99.512;2022-12-11T13:55:38;21.38;;;12.48;;
36797;SDS011;22748;8.426;99.512;2022-12-11T13:58:15;24.52;;;11.75;;
36797;SDS011;22748;8.426;99.512;2022-12-11T14:00:58;17.75;;;13.27;;
36797;SDS011;22748;8.426;99.512;2022-12-11T14:03:47;21.25;;;13.10;;
36797;SDS011;22748;8.426;99.512;2022-12-11T14:06:29;23.05;;;13.32;;
36797;SDS011;22748;8.426;99.512;2022-12-11T14:09:13;24.50;;;14.48;;
36797;SDS011;22748;8.426;99.512;2022-12-11T14:11:53;19.30;;;13.02;;
36797;SDS011;22748;8.426;99.512;2022-12-11T14:14:32;18.50;;;13.75;;
36797;SDS011;22748;8.426;99.512;2022-12-11T14:17:09;18.30;;;14.02;;
36797;SDS011;22748;8.426;99.512;2022-12-11T14:19:44;21.15;;;13.85;;
36797;SDS011;22748;8.426;99.512;2022-12-11T14:22:25;20.85;;;13.20;;
36797;SDS011;22748;8.426;99.512;2022-12-11T14:25:00;22.92;;;13.95;;
36797;SDS011;22748;8.426;99.512;2022-12-11T14:27:49;21.38;;;14.38;;
36797;SDS011;22748;8.426;99.512;2022-12-11T14:30:21;21.67;;;15.20;;
36797;SDS011;22748;8.426;99.512;2022-12-11T14:32:57;22.65;;;15.32;;
36797;SDS011;22748;8.426;99.512;2022-12-11T14:35:38;22.05;;;14.57;;
36797;SDS011;22748;8.426;99.512;2022-12-11T14:38:17;23.17;;;12.88;;
36797;SDS011;22748;8.426;99.512;2022-12-11T14:40:56;19.23;;;13.05;;
36797;SDS011;22748;8.426;99.512;2022-12-11T14:43:34;17.00;;;12.35;;
36797;SDS011;22748;8.426;99.512;2022-12-11T14:46:15;18.80;;;11.88;;
36797;SDS011;22748;8.426;99.512;2022-12-11T14:48:49;19.75;;;12.80;;
36797;SDS011;22748;8.426;99.512;2022-12-11T14:51:24;16.83;;;12.60;;
36797;SDS011;22748;8.426;99.512;2022-12-11T14:53:59;15.85;;;11.57;;
36797;SDS011;22748;8.426;99.512;2022-12-11T14:56:32;19.80;;;12.65;;
36797;SDS011;22748;8.426;99.512;2022-12-11T14:59:04;18.67;;;11.85;;
36797;SDS011;22748;8.426;99.512;2022-12-11T15:01:44;18.42;;;11.98;;
36797;SDS011;22748;8.426;99.512;2022-12-11T15:04:26;17.40;;;11.80;;
36797;SDS011;22748;8.426;99.512;2022-12-11T15:07:00;15.90;;;11.60;;
36797;SDS011;22748;8.426;99.512;2022-12-11T15:09:39;17.23;;;11.40;;
36797;SDS011;22748;8.426;99.512;2022-12-11T15:12:12;17.40;;;12.05;;
36797;SDS011;22748;8.426;99.512;2022-12-11T15:14:46;23.23;;;14.32;;
36797;SDS011;22748;8.426;99.512;2022-12-11T15:17:19;22.45;;;14.60;;
36797;SDS011;22748;8.426;99.512;2022-12-11T15:19:55;17.65;;;13.55;;
36797;SDS011;22748;8.426;99.512;2022-12-11T15:22:33;17.42;;;13.18;;
36797;SDS011;22748;8.426;99.512;2022-12-11T15:25:17;20.60;;;13.88;;
36797;SDS011;22748;8.426;99.512;2022-12-11T15:27:51;17.98;;;12.50;;
36797;SDS011;22748;8.426;99.512;2022-12-11T15:30:28;19.35;;;12.63;;
36797;SDS011;22748;8.426;99.512;2022-12-11T15:33:04;20.80;;;13.63;;
36797;SDS011;22748;8.426;99.512;2022-12-11T15:35:57;21.08;;;13.40;;
36797;SDS011;22748;8.426;99.512;2022-12-11T15:38:31;20.23;;;13.07;;
36797;SDS011;22748;8.426;99.512;2022-12-11T15:41:12;23.23;;;13.77;;
36797;SDS011;22748;8.426;99.512;2022-12-11T15:43:47;19.20;;;13.35;;
36797;SDS011;22748;8.426;99.512;2022-12-11T15:46:19;21.52;;;14.05;;
36797;SDS011;22748;8.426;99.512;2022-12-11T15:48:49;22.65;;;14.13;;
36797;SDS011;22748;8.426;99.512;2022-12-11T15:53:54;20.85;;;13.73;;
36797;SDS011;22748;8.426;99.512;2022-12-11T15:56:26;19.60;;;12.43;;
36797;SDS011;22748;8.426;99.512;2022-12-11T15:58:56;16.92;;;11.93;;
36797;SDS011;22748;8.426;99.512;2022-12-11T16:01:35;18.92;;;12.55;;
36797;SDS011;22748;8.426;99.512;2022-12-11T16:04:05;19.27;;;12.85;;